Time;durP1;ratioP1;P1;durP2;ratioP2;P2;SDS_P1;SDS_P2;PMS_P1;PMS_P2;Temp;Humidity;BMP_temperature;BMP_pressure;BME280_temperature;BME280_humidity;BME280_pressure;Samples;Min_cycle;Max_cycle;Signal;HPM_P1;HPM_P2
2023/09/02 00:00:00;;;;;;;17.77;11.00;;;;;;;-145.63;45.40;38725.06;5034848;28;20048;-68
2023/09/02 00:02:26;;;;;;;15.15;10.65;;;;;;;-145.63;45.52;38736.78;5035404;28;20303;-68
2023/09/02 00:04:51;;;;;;;15.80;10.60;;;;;;;-145.63;45.42;38727.00;5020189;28;20084;-68
2023/09/02 00:07:17;;;;;;;15.60;10.65;;;;;;;-145.63;45.96;38744.59;5037470;28;20397;-68
2023/09/02 00:09:43;;;;;;;14.90;10.98;;;;;;;-145.63;46.21;38750.47;5026729;28;20029;-68
2023/09/02 00:12:08;;;;;;;13.40;10.45;;;;;;;-145.63;46.16;38803.28;5029173;28;20064;-67
2023/09/02 00:14:34;;;;;;;16.17;11.20;;;;;;;-145.63;46.42;38783.72;5031202;28;20304;-68
2023/09/02 00:17:00;;;;;;;18.98;10.70;;;;;;;-145.63;46.28;38773.94;5037952;28;20087;-67
2023/09/02 00:19:25;;;;;;;19.95;10.80;;;;;;;-145.63;46.54;38768.06;5040914;28;20029;-67
2023/09/02 00:21:51;;;;;;;17.63;11.05;;;;;;;-145.63;46.88;38809.13;5044776;28;20028;-66
2023/09/02 00:24:16;;;;;;;15.48;11.43;;;;;;;-145.63;46.44;38764.16;5032421;28;20072;-67
2023/09/02 00:26:42;;;;;;;14.93;10.73;;;;;;;-145.63;46.81;38799.34;5045669;28;20041;-67
2023/09/02 00:29:08;;;;;;;15.13;11.32;;;;;;;-145.63;46.96;38785.66;5041555;28;20083;-67
2023/09/02 00:31:34;;;;;;;15.80;10.60;;;;;;;-145.63;46.59;38783.72;5042194;28;20025;-67
2023/09/02 00:34:00;;;;;;;16.55;11.48;;;;;;;-145.63;47.22;38836.50;5028949;28;20034;-66
2023/09/02 00:36:27;;;;;;;21.42;11.40;;;;;;;-145.63;47.11;38820.88;5036947;28;20048;-67
2023/09/02 00:38:53;;;;;;;16.17;11.95;;;;;;;-145.63;47.21;38836.50;5044868;28;20034;-68
2023/09/02 00:41:32;;;;;;;18.35;11.43;;;;;;;-145.63;47.09;38832.59;5040513;28;20122;-67
2023/09/02 00:43:59;;;;;;;14.65;10.70;;;;;;;-145.63;46.86;38863.88;5030900;28;20281;-67
2023/09/02 00:46:24;;;;;;;17.48;11.45;;;;;;;-145.63;46.83;38820.88;5046569;28;20326;-67
2023/09/02 00:48:50;;;;;;;19.40;11.00;;;;;;;-145.63;47.30;38805.22;5036205;28;20027;-68
2023/09/02 00:51:16;;;;;;;16.20;10.90;;;;;;;-145.63;47.24;38811.09;5044070;28;20029;-67
2023/09/02 00:53:44;;;;;;;14.80;10.93;;;;;;;-145.63;47.17;38820.88;5036933;28;20025;-67
2023/09/02 00:56:14;;;;;;;19.48;11.68;;;;;;;-145.63;47.13;38809.13;5026304;28;20033;-67
2023/09/02 00:58:40;;;;;;;15.60;11.25;;;;;;;-145.63;47.12;38820.88;5031960;28;20084;-67
2023/09/02 01:01:06;;;;;;;19.60;12.23;;;;;;;-145.63;47.07;38838.47;5036487;28;20330;-67
2023/09/02 01:03:35;;;;;;;18.33;11.48;;;;;;;-145.63;47.21;38779.81;5043876;28;20120;-67
2023/09/02 01:06:03;;;;;;;16.02;11.82;;;;;;;-145.63;47.18;38801.31;5029169;28;20093;-68
2023/09/02 01:08:30;;;;;;;18.98;11.77;;;;;;;-145.63;47.78;38859.97;5038735;28;20032;-68
2023/09/02 01:10:59;;;;;;;17.88;11.35;;;;;;;-145.63;47.32;38867.81;5031445;28;20029;-67
2023/09/02 01:13:28;;;;;;;16.05;10.88;;;;;;;-145.63;47.72;38867.81;5026166;28;20018;-68
2023/09/02 01:15:54;;;;;;;20.40;10.55;;;;;;;-145.63;47.90;38873.66;5041645;28;20033;-67
2023/09/02 01:18:24;;;;;;;22.65;11.55;;;;;;;-145.63;48.33;38871.72;5034110;28;20091;-67
2023/09/02 01:21:14;;;;;;;18.45;10.98;;;;;;;-145.63;48.41;38879.53;5042439;28;20032;-68
2023/09/02 01:23:46;;;;;;;20.55;10.77;;;;;;;-145.63;48.38;38869.75;5044797;28;20044;-67
2023/09/02 01:26:22;;;;;;;;;;;;;;;-145.63;48.51;38883.44;5042161;28;20045;-67
2023/09/02 01:28:51;;;;;;;22.08;11.13;;;;;;;-145.63;48.64;38887.34;5043326;28;19919;-66
2023/09/02 01:31:18;;;;;;;19.27;11.80;;;;;;;-145.63;48.65;38881.50;5035895;28;20081;-67
2023/09/02 01:33:47;;;;;;;16.73;11.40;;;;;;;-145.63;48.52;38891.28;5041682;28;20022;-67
2023/09/02 01:36:17;;;;;;;16.40;11.27;;;;;;;-145.63;48.35;38875.63;5032708;28;20026;-67
2023/09/02 01:38:43;;;;;;;15.35;10.63;;;;;;;-145.63;48.37;38906.91;5041078;28;20033;-67
2023/09/02 01:41:10;;;;;;;17.45;11.05;;;;;;;-145.63;48.40;38891.28;5041806;28;20338;-68
2023/09/02 01:43:38;;;;;;;19.50;10.73;;;;;;;-145.63;48.52;38879.53;5037061;28;20033;-66
2023/09/02 01:46:05;;;;;;;20.23;11.10;;;;;;;-145.63;48.20;38891.28;5036972;28;20033;-67
2023/09/02 01:48:31;;;;;;;16.30;11.18;;;;;;;-145.63;48.63;38848.25;5032203;28;21134;-68
2023/09/02 01:50:58;;;;;;;19.15;10.65;;;;;;;-145.63;48.54;38865.84;5040501;28;20080;-68
2023/09/02 01:53:24;;;;;;;21.48;11.52;;;;;;;-145.63;47.99;38875.63;5038877;28;20345;-67
2023/09/02 01:55:50;;;;;;;14.80;10.85;;;;;;;-145.63;48.28;38871.72;5036760;28;20029;-67
2023/09/02 01:58:16;;;;;;;15.05;10.60;;;;;;;-145.63;48.23;38897.13;5041699;28;20067;-68
2023/09/02 02:00:42;;;;;;;16.70;11.73;;;;;;;-145.63;48.35;38897.13;5031688;28;20052;-68
2023/09/02 02:03:19;;;;;;;15.88;10.98;;;;;;;-145.63;48.26;38887.34;5039929;28;20306;-68
2023/09/02 02:05:51;;;;;;;14.90;11.77;;;;;;;-145.63;48.09;38859.97;5035827;28;20030;-66
2023/09/02 02:08:29;;;;;;;20.08;11.05;;;;;;;-145.63;48.12;38903.00;5035781;28;20062;-66
2023/09/02 02:10:58;;;;;;;15.02;10.80;;;;;;;-145.63;48.77;38934.28;5012725;28;20057;-67
2023/09/02 02:13:23;;;;;;;15.85;10.63;;;;;;;-145.63;48.62;38914.72;5033793;28;20021;-67
2023/09/02 02:15:49;;;;;;;18.95;11.32;;;;;;;-145.63;48.37;38883.44;5039049;28;20036;-68
2023/09/02 02:18:15;;;;;;;16.45;10.68;;;;;;;-145.63;48.41;38867.81;5031571;28;20041;-68
2023/09/02 02:21:07;;;;;;;15.15;10.30;;;;;;;-145.63;48.85;38867.81;5035084;28;20026;-67
2023/09/02 02:23:33;;;;;;;18.20;11.63;;;;;;;-145.63;49.53;38916.69;5030670;28;20101;-67
2023/09/02 02:26:03;;;;;;;19.15;11.60;;;;;;;-145.63;48.46;38906.91;5041860;28;20038;-67
2023/09/02 02:28:29;;;;;;;18.75;11.35;;;;;;;-145.63;48.37;38889.31;5041278;28;20072;-67
2023/09/02 02:30:56;;;;;;;16.77;9.85;;;;;;;-145.63;49.05;38881.50;5025730;28;20322;-68
2023/09/02 02:33:22;;;;;;;16.42;11.00;;;;;;;-145.63;48.90;38879.53;5026467;28;20025;-67
2023/09/02 02:35:48;;;;;;;14.52;10.98;;;;;;;-145.63;48.52;38883.44;5034962;28;20210;-68
2023/09/02 02:38:14;;;;;;;18.30;11.48;;;;;;;-145.63;48.97;38908.88;5032850;28;20068;-67
2023/09/02 02:40:40;;;;;;;19.30;14.32;;;;;;;-145.63;48.41;38903.00;5039486;28;20033;-68
2023/09/02 02:43:05;;;;;;;21.40;12.30;;;;;;;-145.63;48.18;38910.81;5034644;28;20037;-68
2023/09/02 02:45:31;;;;;;;15.52;11.52;;;;;;;-145.63;48.46;38891.28;5032354;28;20040;-68
2023/09/02 02:47:57;;;;;;;17.45;11.00;;;;;;;-145.63;48.62;38901.03;5033648;28;20029;-68
2023/09/02 02:50:23;;;;;;;18.85;12.63;;;;;;;-145.63;48.31;38906.91;5033519;28;20061;-68
2023/09/02 02:52:50;;;;;;;17.88;11.57;;;;;;;-145.63;48.16;38893.22;5041334;28;20088;-68
2023/09/02 02:55:16;;;;;;;17.27;12.52;;;;;;;-145.63;47.98;38885.41;5029460;28;20040;-68
2023/09/02 02:57:43;;;;;;;18.70;11.73;;;;;;;-145.63;48.85;38899.09;5036833;28;20041;-68
2023/09/02 03:00:09;;;;;;;16.90;12.15;;;;;;;-145.63;48.18;38914.72;5031905;28;20353;-67
2023/09/02 03:02:34;;;;;;;17.70;10.88;;;;;;;-145.63;48.45;38914.72;5032978;28;20030;-67
2023/09/02 03:05:00;;;;;;;16.85;11.85;;;;;;;-145.63;48.82;38920.59;5040226;28;20034;-67
2023/09/02 03:07:26;;;;;;;15.85;11.90;;;;;;;-145.63;48.73;38889.31;5030265;28;20040;-67
2023/09/02 03:09:52;;;;;;;16.83;11.68;;;;;;;-145.63;48.89;38930.38;5035627;28;20025;-69
2023/09/02 03:12:18;;;;;;;15.88;11.30;;;;;;;-145.63;48.63;38910.81;5030760;28;20049;-67
2023/09/02 03:14:46;;;;;;;13.80;10.30;;;;;;;-145.63;48.38;38906.91;5031858;28;20025;-67
2023/09/02 03:17:13;;;;;;;17.80;11.73;;;;;;;-145.63;48.58;38885.41;5011768;28;20017;-68
2023/09/02 03:19:48;;;;;;;19.25;12.07;;;;;;;-145.63;48.31;38877.56;5043709;28;20025;-66
2023/09/02 03:22:14;;;;;;;17.58;11.40;;;;;;;-145.63;48.55;38899.09;5029731;28;20056;-68
2023/09/02 03:24:41;;;;;;;15.70;11.65;;;;;;;-145.63;49.06;38899.09;5036754;28;20214;-67
2023/09/02 03:27:07;;;;;;;17.48;11.63;;;;;;;-145.63;49.02;38924.50;5034291;28;20059;-68
2023/09/02 03:29:33;;;;;;;22.58;12.30;;;;;;;-145.63;48.75;38930.38;5042617;28;20337;-68
2023/09/02 03:31:59;;;;;;;15.68;11.52;;;;;;;-145.63;49.36;38938.19;5041243;28;20063;-68
2023/09/02 03:34:25;;;;;;;12.95;10.85;;;;;;;-145.63;48.83;38899.09;5036543;28;20026;-68
2023/09/02 03:36:51;;;;;;;19.05;12.23;;;;;;;-145.63;48.81;38877.56;5031049;28;20205;-68
2023/09/02 03:39:16;;;;;;;17.95;11.25;;;;;;;-145.63;48.83;38906.91;5033344;28;20037;-68
2023/09/02 03:41:44;;;;;;;17.55;11.68;;;;;;;-145.63;48.88;38906.91;5035706;28;20025;-67
2023/09/02 03:44:10;;;;;;;21.08;11.32;;;;;;;-145.63;48.83;38918.66;5029953;28;20025;-68
2023/09/02 03:46:36;;;;;;;15.85;11.20;;;;;;;-145.63;49.04;38895.19;5023439;28;20032;-68
2023/09/02 03:49:02;;;;;;;15.10;11.27;;;;;;;-145.63;48.98;38742.66;5040190;28;20199;-68
2023/09/02 03:51:28;;;;;;;18.77;11.15;;;;;;;-145.63;48.78;38877.56;5033277;28;20099;-68
2023/09/02 03:53:54;;;;;;;15.05;10.38;;;;;;;-145.63;48.60;38904.97;5040954;28;20095;-68
2023/09/02 03:56:20;;;;;;;19.80;11.80;;;;;;;-145.63;49.26;38926.47;5031917;28;20029;-68
2023/09/02 03:58:46;;;;;;;16.80;11.35;;;;;;;-145.63;49.29;38901.03;5023268;28;20195;-68
2023/09/02 04:01:14;;;;;;;14.60;11.13;;;;;;;-145.63;49.01;38912.78;5039463;28;20040;-68
2023/09/02 04:03:40;;;;;;;14.02;10.70;;;;;;;-145.63;48.73;38922.56;5036870;28;20032;-67
2023/09/02 04:06:06;;;;;;;15.07;10.45;;;;;;;-145.63;48.85;38918.66;5040709;28;20029;-67
2023/09/02 04:08:36;;;;;;;19.80;11.73;;;;;;;-145.63;48.52;38889.31;5035838;28;20048;-68
2023/09/02 04:11:05;;;;;;;16.08;11.77;;;;;;;-145.63;48.82;38895.19;5040545;28;20059;-67
2023/09/02 04:13:31;;;;;;;17.95;11.20;;;;;;;-145.63;48.84;38897.13;5026564;28;20021;-68
2023/09/02 04:15:58;;;;;;;18.55;11.32;;;;;;;-145.63;48.77;38918.66;5031465;28;20028;-68
2023/09/02 04:18:24;;;;;;;12.77;10.82;;;;;;;-145.63;48.29;38897.13;5040241;28;20084;-67
2023/09/02 04:20:51;;;;;;;16.98;10.25;;;;;;;-145.63;48.60;38877.56;5034220;28;20029;-67
2023/09/02 04:23:17;;;;;;;14.55;10.07;;;;;;;-145.63;48.18;38875.63;5029433;28;20104;-67
2023/09/02 04:25:50;;;;;;;16.58;11.40;;;;;;;-145.63;48.11;38875.63;5042581;28;20029;-66
2023/09/02 04:28:17;;;;;;;14.73;10.43;;;;;;;-145.63;48.39;38871.72;5020651;28;20037;-67
2023/09/02 04:30:44;;;;;;;17.55;10.73;;;;;;;-145.63;47.95;38885.41;5025372;28;20023;-68
2023/09/02 04:33:10;;;;;;;13.95;10.20;;;;;;;-145.63;47.50;38832.59;5023754;28;20211;-67
2023/09/02 04:35:37;;;;;;;20.05;11.38;;;;;;;-145.63;48.15;38846.28;5025530;28;20037;-69
2023/09/02 04:38:04;;;;;;;17.45;11.25;;;;;;;-145.63;47.56;38832.59;5040538;28;20038;-67
2023/09/02 04:40:29;;;;;;;12.93;9.85;;;;;;;-145.63;47.42;38803.28;5032614;28;20060;-67
2023/09/02 04:42:56;;;;;;;14.40;10.88;;;;;;;-145.63;47.00;38801.31;5030391;28;20261;-68
2023/09/02 04:45:22;;;;;;;11.57;10.23;;;;;;;-145.63;47.57;38807.19;5037252;28;20079;-68
2023/09/02 04:47:48;;;;;;;18.67;11.38;;;;;;;-145.63;47.03;38832.59;5038456;28;20029;-68
2023/09/02 04:50:14;;;;;;;14.55;10.77;;;;;;;-145.63;46.83;38795.44;5037124;28;20034;-69
2023/09/02 04:52:40;;;;;;;15.05;10.40;;;;;;;-145.63;46.71;38789.59;5033462;28;20036;-67
2023/09/02 04:55:05;;;;;;;13.88;9.93;;;;;;;-145.63;46.74;38813.03;5041074;28;20057;-68
2023/09/02 04:57:33;;;;;;;15.32;10.50;;;;;;;-145.63;46.73;38809.13;5029537;28;20217;-68
2023/09/02 04:59:59;;;;;;;14.23;10.15;;;;;;;-145.63;47.17;38856.06;5037605;28;20369;-67
2023/09/02 05:02:25;;;;;;;15.57;11.02;;;;;;;-145.63;46.90;38785.66;5030398;28;20085;-68
2023/09/02 05:04:53;;;;;;;16.40;10.82;;;;;;;-145.63;46.71;38746.56;5036047;28;20275;-69
2023/09/02 05:07:19;;;;;;;14.15;9.25;;;;;;;-145.63;46.34;38762.22;5043434;28;20352;-68
2023/09/02 05:09:44;;;;;;;14.02;10.10;;;;;;;-145.63;45.97;38793.50;5036032;28;20025;-69
2023/09/02 05:12:10;;;;;;;16.30;9.40;;;;;;;-145.63;45.85;38750.47;5035967;28;20059;-67
2023/09/02 05:14:37;;;;;;;15.00;10.13;;;;;;;-145.63;46.26;38736.78;5039722;28;20030;-68
2023/09/02 05:17:03;;;;;;;14.70;9.82;;;;;;;-145.63;45.67;38740.69;5041189;28;20510;-68
2023/09/02 05:19:28;;;;;;;14.80;10.48;;;;;;;-145.63;45.72;38740.69;5037094;28;20038;-68
2023/09/02 05:21:57;;;;;;;15.70;10.13;;;;;;;-145.63;45.62;38699.63;5040666;28;20029;-68
2023/09/02 05:24:23;;;;;;;16.77;8.82;;;;;;;-145.63;45.23;38713.31;5024495;28;20052;-67
2023/09/02 05:26:49;;;;;;;14.45;10.02;;;;;;;-145.63;45.34;38703.53;5016667;28;20029;-67
2023/09/02 05:29:14;;;;;;;14.43;9.63;;;;;;;-145.63;45.09;38672.25;5020694;28;20061;-68
2023/09/02 05:31:40;;;;;;;12.95;9.45;;;;;;;-145.63;44.53;38670.28;5022851;28;20026;-67
2023/09/02 05:34:06;;;;;;;18.42;9.88;;;;;;;-145.63;44.76;38668.34;5023012;28;20037;-67
2023/09/02 05:36:31;;;;;;;12.75;9.23;;;;;;;-145.63;44.24;38668.34;5021727;28;20025;-67
2023/09/02 05:38:57;;;;;;;13.88;9.38;;;;;;;-145.63;44.31;38682.03;5018032;28;20344;-68
2023/09/02 05:41:24;;;;;;;16.67;9.13;;;;;;;-145.63;44.20;38691.81;5025895;28;20034;-66
2023/09/02 05:43:50;;;;;;;13.77;9.57;;;;;;;-145.63;44.58;38660.53;5028212;28;20271;-67
2023/09/02 05:46:16;;;;;;;16.40;9.80;;;;;;;-145.63;44.96;38654.66;5020464;28;20100;-66
2023/09/02 05:48:42;;;;;;;14.25;9.45;;;;;;;-145.63;45.10;38685.94;5019951;28;20231;-67
2023/09/02 05:51:07;;;;;;;12.85;10.07;;;;;;;-145.63;44.87;38676.16;5022224;28;20026;-66
2023/09/02 05:53:33;;;;;;;17.60;10.48;;;;;;;-145.63;45.08;38672.25;5023470;28;20042;-67
2023/09/02 05:55:58;;;;;;;15.38;10.00;;;;;;;-145.63;45.26;38639.00;5020703;28;20026;-68
2023/09/02 05:58:26;;;;;;;17.23;9.73;;;;;;;-145.63;44.96;38613.59;5023377;28;20022;-68
2023/09/02 06:00:52;;;;;;;18.23;9.35;;;;;;;-145.63;44.34;38607.72;5040201;28;20202;-67
2023/09/02 06:03:18;;;;;;;14.65;9.73;;;;;;;-145.63;43.75;38609.69;5023479;28;20322;-67
2023/09/02 06:05:43;;;;;;;17.30;9.48;;;;;;;-145.63;43.93;38621.41;5020837;28;20057;-67
2023/09/02 06:08:09;;;;;;;17.17;9.70;;;;;;;-145.63;43.52;38562.75;5030809;28;20030;-67
2023/09/02 06:10:36;;;;;;;16.27;8.95;;;;;;;-145.63;43.55;38586.22;5022465;28;20320;-67
2023/09/02 06:13:01;;;;;;;13.10;8.90;;;;;;;-145.63;43.29;38566.66;5017293;28;20199;-67
2023/09/02 06:15:27;;;;;;;15.60;10.68;;;;;;;-145.63;43.91;38558.84;5016787;28;20022;-68
2023/09/02 06:17:53;;;;;;;13.25;9.60;;;;;;;-145.63;43.80;38562.75;5016652;28;20022;-67
2023/09/02 06:20:20;;;;;;;13.23;9.07;;;;;;;-145.63;43.36;38529.50;5021460;28;20215;-67
2023/09/02 06:22:46;;;;;;;14.35;9.05;;;;;;;-145.63;43.34;38509.97;5021090;28;20022;-67
2023/09/02 06:25:13;;;;;;;19.23;9.40;;;;;;;-145.63;43.26;38558.84;5018760;28;20036;-68
2023/09/02 06:27:38;;;;;;;14.73;9.70;;;;;;;-145.63;42.75;38574.47;5020116;28;20088;-67
2023/09/02 06:30:05;;;;;;;20.38;10.50;;;;;;;-145.63;42.56;38527.56;5021606;28;20183;-68
2023/09/02 06:32:31;;;;;;;16.45;9.50;;;;;;;-145.63;42.50;38494.31;5021861;28;20056;-68
2023/09/02 06:34:57;;;;;;;14.95;9.75;;;;;;;-145.63;42.90;38484.53;5020446;28;20022;-67
2023/09/02 06:37:26;;;;;;;16.00;10.00;;;;;;;-145.63;42.19;38494.31;5026242;28;20306;-68
2023/09/02 06:39:55;;;;;;;17.80;9.65;;;;;;;-145.63;43.30;38523.66;5030983;28;20044;-68
2023/09/02 06:42:23;;;;;;;13.68;10.10;;;;;;;-145.63;42.50;38560.78;5026155;28;20206;-68
2023/09/02 06:44:55;;;;;;;21.88;10.65;;;;;;;-145.63;42.83;38554.94;5022702;28;20029;-67
2023/09/02 06:47:21;;;;;;;14.02;10.38;;;;;;;-145.63;42.70;38515.81;5022443;28;20029;-67
2023/09/02 06:49:47;;;;;;;14.63;9.35;;;;;;;-145.63;42.52;38515.81;5028534;28;20026;-67
2023/09/02 06:52:12;;;;;;;16.10;9.85;;;;;;;-145.63;42.55;38506.03;5022007;28;20021;-67
2023/09/02 06:54:38;;;;;;;14.80;9.50;;;;;;;-145.63;42.77;38531.47;5034380;28;20355;-66
2023/09/02 06:57:04;;;;;;;19.00;10.52;;;;;;;-145.63;42.53;38513.88;5042420;28;20028;-68
2023/09/02 06:59:29;;;;;;;17.10;10.93;;;;;;;-145.63;42.68;38539.28;5039610;28;20294;-67
2023/09/02 07:01:55;;;;;;;17.08;10.05;;;;;;;-145.63;42.68;38506.03;5038519;28;20025;-68
2023/09/02 07:04:20;;;;;;;14.13;9.80;;;;;;;-145.63;42.96;38496.28;5041825;28;20029;-68
2023/09/02 07:06:46;;;;;;;14.98;9.98;;;;;;;-145.63;42.75;38455.22;5029237;28;20018;-67
2023/09/02 07:09:12;;;;;;;14.43;9.55;;;;;;;-145.63;42.57;38470.84;5030433;28;20025;-69
2023/09/02 07:11:37;;;;;;;16.20;10.57;;;;;;;-145.63;42.05;38464.97;5038629;28;20037;-68
2023/09/02 07:14:03;;;;;;;14.38;10.15;;;;;;;-145.63;42.18;38429.78;5037897;28;20036;-68
2023/09/02 07:16:29;;;;;;;15.95;10.63;;;;;;;-145.63;42.46;38410.22;5041723;28;20021;-67
2023/09/02 07:18:54;;;;;;;20.85;10.80;;;;;;;-145.63;41.70;38451.28;5032882;28;20100;-67
2023/09/02 07:21:23;;;;;;;21.52;11.32;;;;;;;-145.63;41.38;38476.72;5041183;28;20318;-66
2023/09/02 07:23:51;;;;;;;19.27;11.50;;;;;;;-145.63;41.33;38445.44;5040076;28;20045;-68
2023/09/02 07:26:17;;;;;;;16.67;10.40;;;;;;;-145.63;42.14;38240.13;5041123;28;20065;-67
2023/09/02 07:28:43;;;;;;;22.73;12.10;;;;;;;-145.63;41.72;38429.78;5025397;28;20075;-68
2023/09/02 07:31:09;;;;;;;17.80;11.18;;;;;;;-145.63;41.50;38412.19;5026095;28;20018;-67
2023/09/02 07:33:35;;;;;;;16.90;11.85;;;;;;;-145.63;41.23;38386.78;5023524;28;20123;-66
2023/09/02 07:36:12;;;;;;;25.08;11.75;;;;;;;-145.63;41.44;38382.88;5023472;28;20025;-67
2023/09/02 07:38:39;;;;;;;19.38;11.80;;;;;;;-145.63;41.15;38408.28;5038086;28;20033;-67
2023/09/02 07:41:04;;;;;;;19.35;11.65;;;;;;;-145.63;41.07;38320.28;5039129;28;20030;-67
2023/09/02 07:43:30;;;;;;;19.52;11.80;;;;;;;-145.63;40.83;38320.28;5036224;28;20038;-65
2023/09/02 07:45:56;;;;;;;21.52;12.32;;;;;;;-145.63;40.82;38300.75;5026503;28;20079;-68
2023/09/02 07:48:21;;;;;;;23.38;13.75;;;;;;;-145.63;40.28;38283.16;5027771;28;20025;-67
2023/09/02 07:50:48;;;;;;;23.73;12.65;;;;;;;-145.63;40.09;38269.47;5016483;28;20026;-68
2023/09/02 07:53:14;;;;;;;27.92;13.07;;;;;;;-145.63;39.34;38265.53;5017962;28;20080;-67
2023/09/02 07:55:40;;;;;;;23.63;12.38;;;;;;;-145.63;39.38;38265.53;5015430;28;20018;-67
2023/09/02 07:58:06;;;;;;;27.58;12.77;;;;;;;-145.63;39.76;38253.81;5020857;28;20060;-68
2023/09/02 08:00:35;;;;;;;26.80;12.90;;;;;;;-145.63;40.01;38251.84;5017043;28;20017;-67
2023/09/02 08:03:02;;;;;;;29.88;13.35;;;;;;;-145.63;39.73;38255.78;5019199;28;20026;-67
2023/09/02 08:05:28;;;;;;;22.83;12.82;;;;;;;-145.63;39.76;38242.09;5018584;28;20086;-68
2023/09/02 08:07:54;;;;;;;24.67;12.10;;;;;;;-145.63;39.54;38277.28;5038300;28;20014;-67
2023/09/02 08:10:20;;;;;;;21.40;12.90;;;;;;;-145.63;40.21;38279.22;5034803;28;20308;-66
2023/09/02 08:12:46;;;;;;;18.58;12.68;;;;;;;-145.63;39.30;38300.75;5025071;28;20033;-67
2023/09/02 08:15:13;;;;;;;26.77;13.13;;;;;;;-145.63;39.42;38271.41;5038116;28;20025;-67
2023/09/02 08:17:40;;;;;;;21.27;12.90;;;;;;;-145.63;38.80;38302.69;5038083;28;20022;-68
2023/09/02 08:20:08;;;;;;;25.42;12.65;;;;;;;-145.63;39.17;38294.88;5034191;28;20201;-66
2023/09/02 08:22:36;;;;;;;27.05;13.20;;;;;;;-145.63;39.16;38287.06;5032846;28;20099;-66
2023/09/02 08:25:06;;;;;;;20.65;12.40;;;;;;;-145.63;39.08;38242.09;5032502;28;20221;-67
2023/09/02 08:27:32;;;;;;;23.25;12.05;;;;;;;-145.63;39.46;38275.31;5034016;28;20108;-67
2023/09/02 08:29:57;;;;;;;21.95;11.50;;;;;;;-145.63;39.26;38232.31;5025492;28;20022;-70
2023/09/02 08:32:23;;;;;;;24.90;12.05;;;;;;;-145.63;38.86;38279.22;5023535;28;20337;-68
2023/09/02 08:34:49;;;;;;;22.73;11.85;;;;;;;-145.63;39.37;38296.81;5018460;28;20318;-68
2023/09/02 08:37:14;;;;;;;27.80;15.85;;;;;;;-145.63;38.92;38263.59;5020346;28;20034;-68
2023/09/02 08:39:40;;;;;;;21.23;14.10;;;;;;;-145.63;38.77;38304.66;5022059;28;20025;-68
2023/09/02 08:42:06;;;;;;;21.08;12.98;;;;;;;-145.63;39.22;38226.44;5024083;28;20341;-69
2023/09/02 08:44:35;;;;;;;22.20;12.30;;;;;;;-145.63;40.00;38228.41;5028941;28;20110;-69
2023/09/02 08:47:03;;;;;;;21.23;12.48;;;;;;;-145.63;39.67;38257.72;5015569;28;20033;-68
2023/09/02 08:49:28;;;;;;;19.25;12.40;;;;;;;-145.63;39.84;38269.47;5031636;28;20325;-68
2023/09/02 08:51:55;;;;;;;22.65;13.15;;;;;;;-145.63;38.92;38296.81;5039962;28;20017;-69
2023/09/02 08:54:21;;;;;;;18.13;11.90;;;;;;;-145.63;39.65;38289.00;5034526;28;20059;-66
2023/09/02 08:56:49;;;;;;;25.20;12.52;;;;;;;-145.63;40.40;38300.75;5036514;28;20338;-67
2023/09/02 08:59:15;;;;;;;27.42;12.35;;;;;;;-145.63;40.84;38281.19;5041382;28;20119;-67
2023/09/02 09:01:45;;;;;;;26.05;12.95;;;;;;;-145.63;39.27;38320.28;5032212;28;20025;-66
2023/09/02 09:04:14;;;;;;;23.92;12.13;;;;;;;-145.63;40.24;38320.28;5038939;28;20096;-65
2023/09/02 09:06:40;;;;;;;22.30;12.10;;;;;;;-145.63;40.24;38294.88;5033191;28;20030;-68
2023/09/02 09:09:11;;;;;;;24.83;11.82;;;;;;;-145.63;39.87;38281.19;5027063;28;20030;-66
2023/09/02 09:11:42;;;;;;;26.00;12.52;;;;;;;-145.63;40.41;38292.91;5041867;28;20337;-65
2023/09/02 09:14:30;;;;;;;20.92;12.98;;;;;;;-145.63;39.60;38281.19;5034980;28;20029;-65
2023/09/02 09:16:58;;;;;;;21.60;12.82;;;;;;;-145.63;40.40;38269.47;5041575;28;20201;-66
2023/09/02 09:19:26;;;;;;;22.70;12.80;;;;;;;-145.63;39.71;38333.97;5029765;28;20034;-65
2023/09/02 09:21:52;;;;;;;20.40;11.00;;;;;;;-145.63;40.28;38332.03;5036976;28;20321;-69
2023/09/02 09:24:18;;;;;;;16.63;11.90;;;;;;;-145.63;40.25;38283.16;5034420;28;20053;-66
2023/09/02 09:26:45;;;;;;;23.10;12.25;;;;;;;-145.63;41.48;38292.91;5040700;28;20042;-68
2023/09/02 09:29:16;;;;;;;23.13;11.93;;;;;;;-145.63;41.46;38306.59;5042089;28;20029;-66
2023/09/02 09:31:43;;;;;;;23.80;12.17;;;;;;;-145.63;41.42;38292.91;5030341;28;20032;-67
2023/09/02 09:34:09;;;;;;;16.75;11.30;;;;;;;-145.63;41.78;38345.72;5037180;28;20029;-66
2023/09/02 09:36:35;;;;;;;22.92;12.82;;;;;;;-145.63;41.69;38294.88;5044994;28;20018;-66
2023/09/02 09:39:03;;;;;;;24.25;12.60;;;;;;;-145.63;41.17;38292.91;5038274;28;20032;-67
2023/09/02 09:41:30;;;;;;;21.73;13.55;;;;;;;-145.63;41.41;38333.97;5035774;28;20314;-67
2023/09/02 09:44:06;;;;;;;30.75;16.25;;;;;;;-145.63;41.94;38326.16;5008057;28;20343;-66
2023/09/02 09:46:53;;;;;;;29.92;13.55;;;;;;;-145.63;42.83;38347.66;5025356;28;20029;-67
2023/09/02 09:49:32;;;;;;;25.05;12.90;;;;;;;-145.63;42.51;38357.44;5024392;28;20265;-66
2023/09/02 09:52:01;;;;;;;22.98;13.65;;;;;;;-145.63;42.79;38328.13;5035536;28;20017;-67
2023/09/02 09:54:51;;;;;;;23.58;13.68;;;;;;;-145.63;43.29;38339.84;5044068;28;20029;-66
2023/09/02 09:57:36;;;;;;;24.88;14.25;;;;;;;-145.63;43.89;38343.75;5035887;28;20036;-67
2023/09/02 10:00:07;;;;;;;25.13;13.32;;;;;;;-145.63;43.87;38408.28;5018060;28;20297;-65
2023/09/02 10:02:34;;;;;;;19.80;12.90;;;;;;;-145.63;44.04;38361.34;5041776;28;20111;-66
2023/09/02 10:05:02;;;;;;;21.15;13.95;;;;;;;-145.63;44.61;38406.31;5038784;28;20017;-66
2023/09/02 10:07:33;;;;;;;21.23;13.45;;;;;;;-145.63;44.65;38453.25;5043223;28;20098;-66
2023/09/02 10:10:07;;;;;;;22.80;14.48;;;;;;;-145.63;45.79;38425.88;5034867;28;20075;-67
2023/09/02 10:12:33;;;;;;;23.60;14.85;;;;;;;-145.63;45.24;38380.91;5042581;28;20283;-66
2023/09/02 10:15:01;;;;;;;27.98;14.25;;;;;;;-145.63;45.71;38398.50;5038010;28;20234;-65
2023/09/02 10:17:27;;;;;;;26.35;14.30;;;;;;;-145.63;45.61;38410.22;5039073;28;20108;-67
2023/09/02 10:19:53;;;;;;;25.85;16.02;;;;;;;-145.63;46.21;38400.47;5012087;28;20029;-67
2023/09/02 10:22:21;;;;;;;24.83;15.40;;;;;;;-145.63;46.82;38414.16;5027064;28;20033;-68
2023/09/02 10:25:10;;;;;;;23.58;14.65;;;;;;;-145.63;46.40;38408.28;5035634;28;20083;-66
2023/09/02 10:27:42;;;;;;;24.23;15.05;;;;;;;-145.63;46.96;38441.53;5033278;28;20068;-66
2023/09/02 10:30:16;;;;;;;23.58;15.93;;;;;;;-145.63;47.00;38377.00;5041807;28;20099;-66
2023/09/02 10:32:59;;;;;;;23.13;14.15;;;;;;;-145.63;47.55;38398.50;5040301;28;20097;-67
2023/09/02 10:35:28;;;;;;;25.52;14.60;;;;;;;-145.63;48.73;38433.69;5037215;28;20052;-66
2023/09/02 10:38:02;;;;;;;24.40;16.60;;;;;;;-145.63;48.37;38486.50;5024391;28;20257;-68
2023/09/02 10:40:39;;;;;;;24.73;16.73;;;;;;;-145.63;48.23;38445.44;5025081;28;20325;-67
2023/09/02 10:43:06;;;;;;;32.28;16.25;;;;;;;-145.63;47.09;38433.69;5037231;28;20032;-67
2023/09/02 10:45:32;;;;;;;22.05;16.40;;;;;;;-145.63;47.86;38463.03;5033671;28;20137;-67
2023/09/02 10:47:59;;;;;;;23.38;17.23;;;;;;;-145.63;49.08;38468.91;5038940;28;20069;-66
2023/09/02 10:50:25;;;;;;;23.27;17.25;;;;;;;-145.63;49.27;38513.88;5042670;28;20033;-67
2023/09/02 10:52:51;;;;;;;27.67;17.08;;;;;;;-145.63;49.03;38476.72;5033867;28;20025;-66
2023/09/02 10:55:17;;;;;;;29.40;17.23;;;;;;;-145.63;49.02;38466.94;5040256;28;20029;-67
2023/09/02 10:57:48;;;;;;;25.15;16.45;;;;;;;-145.63;49.27;38468.91;5027099;28;20028;-66
2023/09/02 11:00:21;;;;;;;25.70;17.75;;;;;;;-145.63;49.71;38496.28;5039940;28;20314;-67
2023/09/02 11:02:57;;;;;;;28.33;17.02;;;;;;;-145.63;50.01;38441.53;5038590;28;20038;-67